sensor_id;sensor_type;location;lat;lon;timestamp;P1;durP1;ratioP1;P2;durP2;ratioP2
80115;SDS011;69423;47.608;19.366;2024-02-15T00:00:22;29.97;;;29.00;;
80115;SDS011;69423;47.608;19.366;2024-02-15T00:00:53;29.87;;;28.67;;
80115;SDS011;69423;47.608;19.366;2024-02-15T00:01:24;31.17;;;30.00;;
80115;SDS011;69423;47.608;19.366;2024-02-15T00:01:56;31.80;;;30.80;;
80115;SDS011;69423;47.608;19.366;2024-02-15T00:02:27;31.63;;;30.87;;
80115;SDS011;69423;47.608;19.366;2024-02-15T00:02:58;30.87;;;30.13;;
80115;SDS011;69423;47.608;19.366;2024-02-15T00:03:29;31.40;;;30.67;;
80115;SDS011;69423;47.608;19.366;2024-02-15T00:04:01;31.37;;;30.43;;
80115;SDS011;69423;47.608;19.366;2024-02-15T00:04:32;30.00;;;29.13;;
80115;SDS011;69423;47.608;19.366;2024-02-15T00:05:04;31.80;;;30.77;;
80115;SDS011;69423;47.608;19.366;2024-02-15T00:05:35;32.47;;;31.37;;
80115;SDS011;69423;47.608;19.366;2024-02-15T00:06:07;31.53;;;30.47;;
80115;SDS011;69423;47.608;19.366;2024-02-15T00:06:38;30.77;;;29.87;;
80115;SDS011;69423;47.608;19.366;2024-02-15T00:07:09;31.07;;;30.13;;
80115;SDS011;69423;47.608;19.366;2024-02-15T00:07:40;31.97;;;30.80;;
80115;SDS011;69423;47.608;19.366;2024-02-15T00:08:11;31.80;;;30.83;;
80115;SDS011;69423;47.608;19.366;2024-02-15T00:08:42;31.03;;;30.27;;
80115;SDS011;69423;47.608;19.366;2024-02-15T00:09:15;32.07;;;31.07;;
80115;SDS011;69423;47.608;19.366;2024-02-15T00:09:46;32.83;;;31.97;;
80115;SDS011;69423;47.608;19.366;2024-02-15T00:10:17;34.53;;;33.63;;
80115;SDS011;69423;47.608;19.366;2024-02-15T00:10:48;34.00;;;33.17;;
80115;SDS011;69423;47.608;19.366;2024-02-15T00:11:19;32.13;;;31.47;;
80115;SDS011;69423;47.608;19.366;2024-02-15T00:11:50;30.33;;;29.70;;
80115;SDS011;69423;47.608;19.366;2024-02-15T00:12:21;29.17;;;28.40;;
80115;SDS011;69423;47.608;19.366;2024-02-15T00:12:52;29.17;;;28.27;;
80115;SDS011;69423;47.608;19.366;2024-02-15T00:13:23;28.70;;;27.70;;
80115;SDS011;69423;47.608;19.366;2024-02-15T00:13:54;28.40;;;27.60;;
80115;SDS011;69423;47.608;19.366;2024-02-15T00:14:27;28.40;;;27.70;;
80115;SDS011;69423;47.608;19.366;2024-02-15T00:15:02;27.93;;;27.27;;
80115;SDS011;69423;47.608;19.366;2024-02-15T00:15:33;28.87;;;28.10;;
80115;SDS011;69423;47.608;19.366;2024-02-15T00:16:05;27.80;;;26.93;;
80115;SDS011;69423;47.608;19.366;2024-02-15T00:16:36;28.57;;;27.57;;
80115;SDS011;69423;47.608;19.366;2024-02-15T00:17:07;29.40;;;28.50;;
80115;SDS011;69423;47.608;19.366;2024-02-15T00:17:38;28.37;;;27.40;;
80115;SDS011;69423;47.608;19.366;2024-02-15T00:18:09;29.37;;;28.27;;
80115;SDS011;69423;47.608;19.366;2024-02-15T00:18:41;29.67;;;28.60;;
80115;SDS011;69423;47.608;19.366;2024-02-15T00:19:12;29.07;;;28.37;;
80115;SDS011;69423;47.608;19.366;2024-02-15T00:19:45;30.53;;;29.77;;
80115;SDS011;69423;47.608;19.366;2024-02-15T00:20:17;29.23;;;28.60;;
80115;SDS011;69423;47.608;19.366;2024-02-15T00:20:48;29.97;;;29.20;;
80115;SDS011;69423;47.608;19.366;2024-02-15T00:21:19;29.53;;;28.67;;
80115;SDS011;69423;47.608;19.366;2024-02-15T00:21:50;30.73;;;29.87;;
80115;SDS011;69423;47.608;19.366;2024-02-15T00:22:21;30.83;;;29.83;;
80115;SDS011;69423;47.608;19.366;2024-02-15T00:22:52;30.43;;;29.60;;
80115;SDS011;69423;47.608;19.366;2024-02-15T00:23:23;30.57;;;29.97;;
80115;SDS011;69423;47.608;19.366;2024-02-15T00:23:54;31.33;;;30.67;;
80115;SDS011;69423;47.608;19.366;2024-02-15T00:24:27;30.53;;;29.73;;
80115;SDS011;69423;47.608;19.366;2024-02-15T00:24:58;30.17;;;29.43;;
80115;SDS011;69423;47.608;19.366;2024-02-15T00:25:30;30.10;;;29.33;;
80115;SDS011;69423;47.608;19.366;2024-02-15T00:26:01;30.97;;;30.10;;
80115;SDS011;69423;47.608;19.366;2024-02-15T00:26:32;31.13;;;30.40;;
80115;SDS011;69423;47.608;19.366;2024-02-15T00:27:03;31.33;;;30.57;;
80115;SDS011;69423;47.608;19.366;2024-02-15T00:27:35;31.63;;;30.63;;
80115;SDS011;69423;47.608;19.366;2024-02-15T00:28:06;31.93;;;30.73;;
80115;SDS011;69423;47.608;19.366;2024-02-15T00:28:37;33.10;;;32.10;;
80115;SDS011;69423;47.608;19.366;2024-02-15T00:29:09;32.40;;;31.63;;
80115;SDS011;69423;47.608;19.366;2024-02-15T00:29:40;32.13;;;31.43;;
80115;SDS011;69423;47.608;19.366;2024-02-15T00:30:11;32.03;;;31.33;;
80115;SDS011;69423;47.608;19.366;2024-02-15T00:30:43;32.10;;;31.17;;
80115;SDS011;69423;47.608;19.366;2024-02-15T00:31:14;33.17;;;32.13;;
80115;SDS011;69423;47.608;19.366;2024-02-15T00:31:45;32.47;;;31.47;;
80115;SDS011;69423;47.608;19.366;2024-02-15T00:32:16;31.37;;;30.50;;
80115;SDS011;69423;47.608;19.366;2024-02-15T00:32:47;29.73;;;28.97;;
80115;SDS011;69423;47.608;19.366;2024-02-15T00:33:18;28.43;;;27.60;;
80115;SDS011;69423;47.608;19.366;2024-02-15T00:33:49;28.40;;;27.77;;
80115;SDS011;69423;47.608;19.366;2024-02-15T00:34:20;27.47;;;26.83;;
80115;SDS011;69423;47.608;19.366;2024-02-15T00:34:51;27.03;;;26.30;;
80115;SDS011;69423;47.608;19.366;2024-02-15T00:35:22;26.13;;;25.40;;
80115;SDS011;69423;47.608;19.366;2024-02-15T00:35:53;27.27;;;26.43;;
80115;SDS011;69423;47.608;19.366;2024-02-15T00:36:24;27.27;;;26.37;;
80115;SDS011;69423;47.608;19.366;2024-02-15T00:36:55;26.53;;;25.73;;
80115;SDS011;69423;47.608;19.366;2024-02-15T00:37:26;26.50;;;25.87;;
80115;SDS011;69423;47.608;19.366;2024-02-15T00:37:58;27.10;;;26.50;;
80115;SDS011;69423;47.608;19.366;2024-02-15T00:38:29;26.63;;;26.03;;
80115;SDS011;69423;47.608;19.366;2024-02-15T00:39:00;26.80;;;26.00;;
80115;SDS011;69423;47.608;19.366;2024-02-15T00:39:31;25.40;;;24.70;;
80115;SDS011;69423;47.608;19.366;2024-02-15T00:40:02;26.23;;;25.57;;
80115;SDS011;69423;47.608;19.366;2024-02-15T00:40:34;26.87;;;26.20;;
80115;SDS011;69423;47.608;19.366;2024-02-15T00:41:05;26.50;;;25.87;;
80115;SDS011;69423;47.608;19.366;2024-02-15T00:41:36;28.13;;;27.47;;
80115;SDS011;69423;47.608;19.366;2024-02-15T00:42:08;29.53;;;28.60;;
80115;SDS011;69423;47.608;19.366;2024-02-15T00:42:39;30.30;;;29.40;;
80115;SDS011;69423;47.608;19.366;2024-02-15T00:43:10;30.20;;;29.17;;
80115;SDS011;69423;47.608;19.366;2024-02-15T00:43:41;28.83;;;27.93;;
80115;SDS011;69423;47.608;19.366;2024-02-15T00:44:12;27.87;;;27.03;;
80115;SDS011;69423;47.608;19.366;2024-02-15T00:44:43;27.53;;;26.77;;
80115;SDS011;69423;47.608;19.366;2024-02-15T00:45:15;26.50;;;25.90;;
80115;SDS011;69423;47.608;19.366;2024-02-15T00:45:46;25.70;;;25.03;;
80115;SDS011;69423;47.608;19.366;2024-02-15T00:46:17;26.67;;;25.87;;
80115;SDS011;69423;47.608;19.366;2024-02-15T00:46:48;26.03;;;25.20;;
80115;SDS011;69423;47.608;19.366;2024-02-15T00:47:19;25.87;;;25.10;;
80115;SDS011;69423;47.608;19.366;2024-02-15T00:47:51;27.37;;;26.60;;
80115;SDS011;69423;47.608;19.366;2024-02-15T00:48:22;24.73;;;24.10;;
80115;SDS011;69423;47.608;19.366;2024-02-15T00:48:56;22.70;;;22.17;;
80115;SDS011;69423;47.608;19.366;2024-02-15T00:49:28;22.93;;;22.40;;
80115;SDS011;69423;47.608;19.366;2024-02-15T00:49:59;21.93;;;21.37;;
80115;SDS011;69423;47.608;19.366;2024-02-15T00:50:30;22.03;;;21.40;;
80115;SDS011;69423;47.608;19.366;2024-02-15T00:51:01;21.97;;;21.40;;
80115;SDS011;69423;47.608;19.366;2024-02-15T00:51:32;23.07;;;22.43;;
80115;SDS011;69423;47.608;19.366;2024-02-15T00:52:06;23.57;;;23.10;;
80115;SDS011;69423;47.608;19.366;2024-02-15T00:52:37;24.20;;;23.57;;
80115;SDS011;69423;47.608;19.366;2024-02-15T00:53:08;24.37;;;23.67;;
80115;SDS011;69423;47.608;19.366;2024-02-15T00:53:40;24.40;;;23.67;;
80115;SDS011;69423;47.608;19.366;2024-02-15T00:54:11;26.20;;;25.17;;
80115;SDS011;69423;47.608;19.366;2024-02-15T00:54:42;25.10;;;24.27;;
80115;SDS011;69423;47.608;19.366;2024-02-15T00:55:13;23.80;;;23.10;;
80115;SDS011;69423;47.608;19.366;2024-02-15T00:55:44;22.70;;;22.23;;
80115;SDS011;69423;47.608;19.366;2024-02-15T00:56:15;23.87;;;23.43;;
80115;SDS011;69423;47.608;19.366;2024-02-15T00:56:46;25.27;;;24.63;;
80115;SDS011;69423;47.608;19.366;2024-02-15T00:57:17;26.17;;;25.40;;
80115;SDS011;69423;47.608;19.366;2024-02-15T00:57:48;26.60;;;25.97;;
80115;SDS011;69423;47.608;19.366;2024-02-15T00:58:19;28.37;;;27.57;;
80115;SDS011;69423;47.608;19.366;2024-02-15T00:58:52;30.30;;;29.43;;
80115;SDS011;69423;47.608;19.366;2024-02-15T00:59:23;32.20;;;31.37;;
80115;SDS011;69423;47.608;19.366;2024-02-15T00:59:54;37.23;;;36.20;;
80115;SDS011;69423;47.608;19.366;2024-02-15T01:00:25;37.37;;;36.43;;
80115;SDS011;69423;47.608;19.366;2024-02-15T01:00:56;37.20;;;36.40;;
80115;SDS011;69423;47.608;19.366;2024-02-15T01:01:27;37.93;;;36.93;;
80115;SDS011;69423;47.608;19.366;2024-02-15T01:01:58;39.80;;;38.90;;
80115;SDS011;69423;47.608;19.366;2024-02-15T01:02:30;43.73;;;42.67;;
80115;SDS011;69423;47.608;19.366;2024-02-15T01:03:01;44.27;;;43.33;;
80115;SDS011;69423;47.608;19.366;2024-02-15T01:03:33;44.63;;;43.77;;
80115;SDS011;69423;47.608;19.366;2024-02-15T01:04:05;47.00;;;46.13;;
80115;SDS011;69423;47.608;19.366;2024-02-15T01:04:36;46.20;;;45.20;;
80115;SDS011;69423;47.608;19.366;2024-02-15T01:05:07;45.97;;;44.80;;
80115;SDS011;69423;47.608;19.366;2024-02-15T01:05:38;46.97;;;45.37;;
80115;SDS011;69423;47.608;19.366;2024-02-15T01:06:09;48.10;;;46.67;;
80115;SDS011;69423;47.608;19.366;2024-02-15T01:06:40;46.83;;;45.67;;
80115;SDS011;69423;47.608;19.366;2024-02-15T01:07:12;48.63;;;47.73;;
80115;SDS011;69423;47.608;19.366;2024-02-15T01:07:44;50.20;;;49.10;;
80115;SDS011;69423;47.608;19.366;2024-02-15T01:08:15;52.90;;;51.53;;
80115;SDS011;69423;47.608;19.366;2024-02-15T01:08:46;53.83;;;52.57;;
80115;SDS011;69423;47.608;19.366;2024-02-15T01:09:17;54.63;;;53.50;;
80115;SDS011;69423;47.608;19.366;2024-02-15T01:09:49;53.67;;;52.80;;
80115;SDS011;69423;47.608;19.366;2024-02-15T01:10:20;54.30;;;53.07;;
80115;SDS011;69423;47.608;19.366;2024-02-15T01:10:51;55.20;;;53.60;;
80115;SDS011;69423;47.608;19.366;2024-02-15T01:11:24;53.77;;;52.37;;
80115;SDS011;69423;47.608;19.366;2024-02-15T01:11:55;55.23;;;53.80;;
80115;SDS011;69423;47.608;19.366;2024-02-15T01:12:26;55.50;;;53.83;;
80115;SDS011;69423;47.608;19.366;2024-02-15T01:12:58;55.87;;;54.27;;
80115;SDS011;69423;47.608;19.366;2024-02-15T01:13:29;56.67;;;55.17;;
80115;SDS011;69423;47.608;19.366;2024-02-15T01:14:00;57.40;;;55.53;;
80115;SDS011;69423;47.608;19.366;2024-02-15T01:14:31;55.77;;;54.27;;
80115;SDS011;69423;47.608;19.366;2024-02-15T01:15:02;56.40;;;54.77;;
80115;SDS011;69423;47.608;19.366;2024-02-15T01:15:33;54.43;;;53.27;;
80115;SDS011;69423;47.608;19.366;2024-02-15T01:16:04;54.13;;;53.07;;
80115;SDS011;69423;47.608;19.366;2024-02-15T01:16:36;56.53;;;55.03;;
80115;SDS011;69423;47.608;19.366;2024-02-15T01:17:07;56.10;;;54.30;;
80115;SDS011;69423;47.608;19.366;2024-02-15T01:17:38;56.03;;;54.33;;
80115;SDS011;69423;47.608;19.366;2024-02-15T01:18:09;56.30;;;54.50;;
80115;SDS011;69423;47.608;19.366;2024-02-15T01:18:40;54.60;;;53.00;;
80115;SDS011;69423;47.608;19.366;2024-02-15T01:19:11;55.07;;;53.47;;
80115;SDS011;69423;47.608;19.366;2024-02-15T01:19:42;54.50;;;53.20;;
80115;SDS011;69423;47.608;19.366;2024-02-15T01:20:14;53.40;;;52.03;;
80115;SDS011;69423;47.608;19.366;2024-02-15T01:20:45;50.97;;;49.87;;
80115;SDS011;69423;47.608;19.366;2024-02-15T01:21:16;50.83;;;49.60;;
80115;SDS011;69423;47.608;19.366;2024-02-15T01:21:47;51.50;;;50.33;;
80115;SDS011;69423;47.608;19.366;2024-02-15T01:22:19;53.10;;;52.03;;
80115;SDS011;69423;47.608;19.366;2024-02-15T01:22:50;52.63;;;51.47;;
80115;SDS011;69423;47.608;19.366;2024-02-15T01:23:22;52.97;;;51.73;;
80115;SDS011;69423;47.608;19.366;2024-02-15T01:23:53;52.97;;;51.77;;
80115;SDS011;69423;47.608;19.366;2024-02-15T01:24:27;55.13;;;53.63;;
80115;SDS011;69423;47.608;19.366;2024-02-15T01:24:58;58.03;;;56.40;;
80115;SDS011;69423;47.608;19.366;2024-02-15T01:25:29;55.77;;;54.07;;
80115;SDS011;69423;47.608;19.366;2024-02-15T01:26:00;54.97;;;53.27;;
80115;SDS011;69423;47.608;19.366;2024-02-15T01:26:32;55.63;;;54.00;;
80115;SDS011;69423;47.608;19.366;2024-02-15T01:27:03;54.77;;;53.13;;
80115;SDS011;69423;47.608;19.366;2024-02-15T01:27:34;53.60;;;52.33;;
80115;SDS011;69423;47.608;19.366;2024-02-15T01:28:05;52.37;;;51.00;;
80115;SDS011;69423;47.608;19.366;2024-02-15T01:28:37;53.23;;;51.37;;
80115;SDS011;69423;47.608;19.366;2024-02-15T01:29:08;53.83;;;52.40;;
80115;SDS011;69423;47.608;19.366;2024-02-15T01:29:42;53.10;;;51.97;;
80115;SDS011;69423;47.608;19.366;2024-02-15T01:30:14;53.07;;;51.70;;
80115;SDS011;69423;47.608;19.366;2024-02-15T01:30:45;50.70;;;49.37;;
80115;SDS011;69423;47.608;19.366;2024-02-15T01:31:17;52.57;;;51.37;;
80115;SDS011;69423;47.608;19.366;2024-02-15T01:31:48;52.57;;;51.33;;
80115;SDS011;69423;47.608;19.366;2024-02-15T01:32:19;52.90;;;51.63;;
80115;SDS011;69423;47.608;19.366;2024-02-15T01:32:50;51.87;;;50.63;;
80115;SDS011;69423;47.608;19.366;2024-02-15T01:33:21;51.90;;;50.63;;
80115;SDS011;69423;47.608;19.366;2024-02-15T01:33:52;52.13;;;50.83;;
80115;SDS011;69423;47.608;19.366;2024-02-15T01:34:23;50.20;;;49.07;;
80115;SDS011;69423;47.608;19.366;2024-02-15T01:34:54;50.40;;;49.60;;
80115;SDS011;69423;47.608;19.366;2024-02-15T01:35:25;49.23;;;48.33;;
80115;SDS011;69423;47.608;19.366;2024-02-15T01:35:57;49.03;;;48.13;;
80115;SDS011;69423;47.608;19.366;2024-02-15T01:36:28;49.70;;;48.93;;
80115;SDS011;69423;47.608;19.366;2024-02-15T01:36:59;49.47;;;48.60;;
80115;SDS011;69423;47.608;19.366;2024-02-15T01:37:30;47.53;;;46.57;;
80115;SDS011;69423;47.608;19.366;2024-02-15T01:38:01;48.43;;;47.30;;
80115;SDS011;69423;47.608;19.366;2024-02-15T01:38:32;48.83;;;47.33;;
80115;SDS011;69423;47.608;19.366;2024-02-15T01:39:04;47.87;;;46.60;;
80115;SDS011;69423;47.608;19.366;2024-02-15T01:39:35;46.83;;;45.80;;
80115;SDS011;69423;47.608;19.366;2024-02-15T01:40:06;44.97;;;43.93;;
80115;SDS011;69423;47.608;19.366;2024-02-15T01:40:37;46.07;;;44.97;;
80115;SDS011;69423;47.608;19.366;2024-02-15T01:41:08;46.20;;;44.90;;
80115;SDS011;69423;47.608;19.366;2024-02-15T01:41:39;45.57;;;44.43;;
80115;SDS011;69423;47.608;19.366;2024-02-15T01:42:10;44.90;;;44.20;;
80115;SDS011;69423;47.608;19.366;2024-02-15T01:42:41;45.80;;;44.80;;
80115;SDS011;69423;47.608;19.366;2024-02-15T01:43:12;44.17;;;43.20;;
80115;SDS011;69423;47.608;19.366;2024-02-15T01:43:44;44.47;;;43.60;;
80115;SDS011;69423;47.608;19.366;2024-02-15T01:44:18;45.80;;;44.63;;
80115;SDS011;69423;47.608;19.366;2024-02-15T01:44:50;44.97;;;43.80;;
80115;SDS011;69423;47.608;19.366;2024-02-15T01:45:23;46.60;;;45.33;;
80115;SDS011;69423;47.608;19.366;2024-02-15T01:45:55;45.07;;;43.97;;
80115;SDS011;69423;47.608;19.366;2024-02-15T01:46:29;44.70;;;43.50;;
80115;SDS011;69423;47.608;19.366;2024-02-15T01:47:01;44.80;;;43.83;;
80115;SDS011;69423;47.608;19.366;2024-02-15T01:47:34;45.50;;;44.03;;
80115;SDS011;69423;47.608;19.366;2024-02-15T01:48:06;43.60;;;42.60;;
80115;SDS011;69423;47.608;19.366;2024-02-15T01:48:37;43.50;;;42.77;;
80115;SDS011;69423;47.608;19.366;2024-02-15T01:49:10;44.43;;;43.63;;
80115;SDS011;69423;47.608;19.366;2024-02-15T01:49:42;45.03;;;43.87;;
80115;SDS011;69423;47.608;19.366;2024-02-15T01:50:13;45.23;;;43.77;;
80115;SDS011;69423;47.608;19.366;2024-02-15T01:50:46;44.27;;;43.03;;
80115;SDS011;69423;47.608;19.366;2024-02-15T01:51:17;43.83;;;42.80;;
80115;SDS011;69423;47.608;19.366;2024-02-15T01:51:49;43.27;;;42.27;;
80115;SDS011;69423;47.608;19.366;2024-02-15T01:52:23;41.97;;;41.03;;
80115;SDS011;69423;47.608;19.366;2024-02-15T01:52:54;42.53;;;41.57;;
80115;SDS011;69423;47.608;19.366;2024-02-15T01:53:28;42.47;;;41.63;;
80115;SDS011;69423;47.608;19.366;2024-02-15T01:54:01;42.50;;;41.70;;
80115;SDS011;69423;47.608;19.366;2024-02-15T01:54:32;41.47;;;40.73;;
80115;SDS011;69423;47.608;19.366;2024-02-15T01:55:03;41.37;;;40.47;;
80115;SDS011;69423;47.608;19.366;2024-02-15T01:55:38;42.37;;;41.33;;
80115;SDS011;69423;47.608;19.366;2024-02-15T01:56:11;43.63;;;42.57;;
80115;SDS011;69423;47.608;19.366;2024-02-15T01:56:44;43.67;;;42.53;;
80115;SDS011;69423;47.608;19.366;2024-02-15T01:57:16;44.33;;;43.07;;
80115;SDS011;69423;47.608;19.366;2024-02-15T01:57:47;45.93;;;44.57;;
80115;SDS011;69423;47.608;19.366;2024-02-15T01:58:19;44.87;;;43.90;;
80115;SDS011;69423;47.608;19.366;2024-02-15T01:58:50;44.07;;;42.93;;
80115;SDS011;69423;47.608;19.366;2024-02-15T01:59:22;42.80;;;41.73;;
80115;SDS011;69423;47.608;19.366;2024-02-15T01:59:54;42.80;;;41.80;;
80115;SDS011;69423;47.608;19.366;2024-02-15T02:00:25;43.83;;;42.80;;
80115;SDS011;69423;47.608;19.366;2024-02-15T02:00:56;42.53;;;41.70;;
80115;SDS011;69423;47.608;19.366;2024-02-15T02:01:28;41.47;;;40.70;;
80115;SDS011;69423;47.608;19.366;2024-02-15T02:02:03;42.57;;;41.70;;
80115;SDS011;69423;47.608;19.366;2024-02-15T02:02:41;41.57;;;40.77;;
80115;SDS011;69423;47.608;19.366;2024-02-15T02:03:14;42.53;;;41.70;;
80115;SDS011;69423;47.608;19.366;2024-02-15T02:03:45;43.20;;;42.40;;
80115;SDS011;69423;47.608;19.366;2024-02-15T02:04:17;42.37;;;41.67;;
80115;SDS011;69423;47.608;19.366;2024-02-15T02:04:48;41.57;;;40.73;;
80115;SDS011;69423;47.608;19.366;2024-02-15T02:05:19;40.40;;;39.50;;
80115;SDS011;69423;47.608;19.366;2024-02-15T02:05:50;40.33;;;39.37;;
80115;SDS011;69423;47.608;19.366;2024-02-15T02:06:21;41.03;;;39.90;;
80115;SDS011;69423;47.608;19.366;2024-02-15T02:06:54;40.43;;;39.43;;
80115;SDS011;69423;47.608;19.366;2024-02-15T02:07:29;40.70;;;39.80;;
80115;SDS011;69423;47.608;19.366;2024-02-15T02:08:00;39.13;;;38.33;;
80115;SDS011;69423;47.608;19.366;2024-02-15T02:08:34;38.33;;;37.80;;
80115;SDS011;69423;47.608;19.366;2024-02-15T02:09:05;38.30;;;37.27;;
80115;SDS011;69423;47.608;19.366;2024-02-15T02:09:41;38.00;;;37.23;;
80115;SDS011;69423;47.608;19.366;2024-02-15T02:10:12;37.43;;;36.73;;
80115;SDS011;69423;47.608;19.366;2024-02-15T02:10:43;38.97;;;37.80;;
80115;SDS011;69423;47.608;19.366;2024-02-15T02:11:16;39.40;;;38.03;;
80115;SDS011;69423;47.608;19.366;2024-02-15T02:11:47;38.47;;;37.17;;
80115;SDS011;69423;47.608;19.366;2024-02-15T02:12:18;38.13;;;37.07;;
80115;SDS011;69423;47.608;19.366;2024-02-15T02:12:50;38.90;;;37.73;;
80115;SDS011;69423;47.608;19.366;2024-02-15T02:13:21;37.87;;;36.87;;
80115;SDS011;69423;47.608;19.366;2024-02-15T02:13:52;37.40;;;36.63;;
80115;SDS011;69423;47.608;19.366;2024-02-15T02:14:23;37.93;;;37.10;;
80115;SDS011;69423;47.608;19.366;2024-02-15T02:14:54;39.50;;;38.30;;
80115;SDS011;69423;47.608;19.366;2024-02-15T02:15:26;40.63;;;39.20;;
80115;SDS011;69423;47.608;19.366;2024-02-15T02:15:57;43.83;;;42.07;;
80115;SDS011;69423;47.608;19.366;2024-02-15T02:16:30;48.93;;;46.77;;
80115;SDS011;69423;47.608;19.366;2024-02-15T02:17:12;55.67;;;52.50;;
80115;SDS011;69423;47.608;19.366;2024-02-15T02:17:47;47.80;;;45.43;;
80115;SDS011;69423;47.608;19.366;2024-02-15T02:18:24;47.23;;;44.97;;
80115;SDS011;69423;47.608;19.366;2024-02-15T02:18:55;45.03;;;43.10;;
80115;SDS011;69423;47.608;19.366;2024-02-15T02:19:27;42.00;;;40.73;;
80115;SDS011;69423;47.608;19.366;2024-02-15T02:19:58;40.63;;;39.17;;
80115;SDS011;69423;47.608;19.366;2024-02-15T02:20:29;39.17;;;37.83;;
80115;SDS011;69423;47.608;19.366;2024-02-15T02:21:00;41.83;;;40.07;;
80115;SDS011;69423;47.608;19.366;2024-02-15T02:21:31;41.40;;;39.77;;
80115;SDS011;69423;47.608;19.366;2024-02-15T02:22:05;41.30;;;39.60;;
80115;SDS011;69423;47.608;19.366;2024-02-15T02:22:36;40.60;;;39.37;;
80115;SDS011;69423;47.608;19.366;2024-02-15T02:23:09;38.87;;;37.83;;
80115;SDS011;69423;47.608;19.366;2024-02-15T02:23:44;39.73;;;38.53;;
80115;SDS011;69423;47.608;19.366;2024-02-15T02:24:22;39.63;;;38.00;;
80115;SDS011;69423;47.608;19.366;2024-02-15T02:25:36;38.10;;;36.67;;
80115;SDS011;69423;47.608;19.366;2024-02-15T02:26:07;36.90;;;35.60;;
80115;SDS011;69423;47.608;19.366;2024-02-15T02:26:40;36.83;;;35.67;;
80115;SDS011;69423;47.608;19.366;2024-02-15T02:27:12;36.20;;;35.20;;
80115;SDS011;69423;47.608;19.366;2024-02-15T02:27:44;33.87;;;33.13;;
80115;SDS011;69423;47.608;19.366;2024-02-15T02:28:17;33.40;;;32.77;;
80115;SDS011;69423;47.608;19.366;2024-02-15T02:28:48;34.63;;;33.77;;
80115;SDS011;69423;47.608;19.366;2024-02-15T02:29:20;35.67;;;34.60;;
80115;SDS011;69423;47.608;19.366;2024-02-15T02:29:51;35.97;;;35.10;;
80115;SDS011;69423;47.608;19.366;2024-02-15T02:30:22;34.97;;;34.00;;
80115;SDS011;69423;47.608;19.366;2024-02-15T02:30:53;34.10;;;32.93;;
80115;SDS011;69423;47.608;19.366;2024-02-15T02:31:24;34.00;;;33.03;;
80115;SDS011;69423;47.608;19.366;2024-02-15T02:31:56;34.07;;;33.13;;
80115;SDS011;69423;47.608;19.366;2024-02-15T02:32:27;34.10;;;33.33;;
80115;SDS011;69423;47.608;19.366;2024-02-15T02:32:58;33.00;;;32.30;;
80115;SDS011;69423;47.608;19.366;2024-02-15T02:33:29;33.77;;;33.10;;
80115;SDS011;69423;47.608;19.366;2024-02-15T02:34:00;32.57;;;31.73;;
80115;SDS011;69423;47.608;19.366;2024-02-15T02:34:31;33.00;;;32.13;;
80115;SDS011;69423;47.608;19.366;2024-02-15T02:35:02;33.80;;;33.00;;
80115;SDS011;69423;47.608;19.366;2024-02-15T02:35:34;34.33;;;33.53;;
80115;SDS011;69423;47.608;19.366;2024-02-15T02:36:05;35.37;;;34.50;;
80115;SDS011;69423;47.608;19.366;2024-02-15T02:36:43;34.27;;;33.27;;
80115;SDS011;69423;47.608;19.366;2024-02-15T02:37:14;34.27;;;33.27;;
80115;SDS011;69423;47.608;19.366;2024-02-15T02:37:45;34.73;;;33.77;;
80115;SDS011;69423;47.608;19.366;2024-02-15T02:38:17;34.33;;;33.57;;
80115;SDS011;69423;47.608;19.366;2024-02-15T02:38:48;35.20;;;34.20;;
80115;SDS011;69423;47.608;19.366;2024-02-15T02:39:22;33.30;;;32.40;;
80115;SDS011;69423;47.608;19.366;2024-02-15T02:39:53;33.23;;;32.43;;
80115;SDS011;69423;47.608;19.366;2024-02-15T02:40:24;34.43;;;33.60;;
80115;SDS011;69423;47.608;19.366;2024-02-15T02:40:55;35.67;;;34.67;;
80115;SDS011;69423;47.608;19.366;2024-02-15T02:41:26;36.43;;;35.17;;
80115;SDS011;69423;47.608;19.366;2024-02-15T02:41:58;35.87;;;34.63;;
80115;SDS011;69423;47.608;19.366;2024-02-15T02:42:29;34.63;;;33.37;;
80115;SDS011;69423;47.608;19.366;2024-02-15T02:43:00;34.67;;;33.67;;
80115;SDS011;69423;47.608;19.366;2024-02-15T02:43:31;34.67;;;33.67;;
80115;SDS011;69423;47.608;19.366;2024-02-15T02:44:02;34.90;;;34.10;;
80115;SDS011;69423;47.608;19.366;2024-02-15T02:44:33;35.30;;;34.47;;
80115;SDS011;69423;47.608;19.366;2024-02-15T02:45:05;37.27;;;36.03;;
80115;SDS011;69423;47.608;19.366;2024-02-15T02:45:36;35.53;;;34.60;;
80115;SDS011;69423;47.608;19.366;2024-02-15T02:46:11;34.17;;;33.37;;
80115;SDS011;69423;47.608;19.366;2024-02-15T02:46:42;34.23;;;33.23;;
80115;SDS011;69423;47.608;19.366;2024-02-15T02:47:13;34.40;;;33.40;;
80115;SDS011;69423;47.608;19.366;2024-02-15T02:47:51;33.33;;;32.97;;
80115;SDS011;69423;47.608;19.366;2024-02-15T02:48:23;34.57;;;33.90;;
80115;SDS011;69423;47.608;19.366;2024-02-15T02:48:54;34.90;;;34.17;;
80115;SDS011;69423;47.608;19.366;2024-02-15T02:49:25;33.60;;;32.93;;
80115;SDS011;69423;47.608;19.366;2024-02-15T02:49:56;33.03;;;32.47;;
80115;SDS011;69423;47.608;19.366;2024-02-15T02:50:27;34.03;;;33.43;;
80115;SDS011;69423;47.608;19.366;2024-02-15T02:50:58;33.90;;;33.00;;
80115;SDS011;69423;47.608;19.366;2024-02-15T02:51:29;34.03;;;32.93;;
80115;SDS011;69423;47.608;19.366;2024-02-15T02:52:00;34.43;;;33.57;;
80115;SDS011;69423;47.608;19.366;2024-02-15T02:52:31;36.67;;;35.53;;
80115;SDS011;69423;47.608;19.366;2024-02-15T02:53:02;35.67;;;34.67;;
80115;SDS011;69423;47.608;19.366;2024-02-15T02:53:34;36.17;;;35.40;;
80115;SDS011;69423;47.608;19.366;2024-02-15T02:54:05;37.17;;;36.50;;
80115;SDS011;69423;47.608;19.366;2024-02-15T02:54:37;39.70;;;39.00;;
80115;SDS011;69423;47.608;19.366;2024-02-15T02:55:08;42.17;;;41.10;;
80115;SDS011;69423;47.608;19.366;2024-02-15T02:55:40;45.67;;;44.20;;
80115;SDS011;69423;47.608;19.366;2024-02-15T02:56:13;50.47;;;48.90;;
80115;SDS011;69423;47.608;19.366;2024-02-15T02:56:44;54.00;;;52.57;;
80115;SDS011;69423;47.608;19.366;2024-02-15T02:57:15;57.63;;;55.83;;
80115;SDS011;69423;47.608;19.366;2024-02-15T02:57:47;58.50;;;56.07;;
80115;SDS011;69423;47.608;19.366;2024-02-15T02:58:18;58.20;;;56.17;;
80115;SDS011;69423;47.608;19.366;2024-02-15T02:58:50;60.53;;;58.13;;
80115;SDS011;69423;47.608;19.366;2024-02-15T02:59:21;60.60;;;58.10;;
80115;SDS011;69423;47.608;19.366;2024-02-15T02:59:52;62.27;;;60.00;;
80115;SDS011;69423;47.608;19.366;2024-02-15T03:00:23;59.27;;;57.07;;
80115;SDS011;69423;47.608;19.366;2024-02-15T03:00:54;59.67;;;57.70;;
80115;SDS011;69423;47.608;19.366;2024-02-15T03:01:26;58.57;;;56.70;;
80115;SDS011;69423;47.608;19.366;2024-02-15T03:01:57;59.50;;;57.53;;
80115;SDS011;69423;47.608;19.366;2024-02-15T03:02:28;57.70;;;56.03;;
80115;SDS011;69423;47.608;19.366;2024-02-15T03:03:00;58.97;;;56.83;;